createdAt,value
2023-04-18T00:12:54.890Z,102324.53
2023-04-18T00:20:28.856Z,102327.63
2023-04-18T00:28:04.376Z,102323.16
2023-04-18T00:43:35.224Z,102328.44
2023-04-18T00:51:11.034Z,102339.16
2023-04-18T00:58:46.591Z,102338.31
2023-04-18T01:06:20.864Z,102328.53
2023-04-18T01:14:03.912Z,102336.72
2023-04-18T01:21:41.938Z,102335.66
2023-04-18T01:29:17.357Z,102343.84
2023-04-18T01:36:51.305Z,102342.91
2023-04-18T01:44:26.675Z,102341.91
2023-04-18T01:52:01.021Z,102334.88
2023-04-18T01:59:36.549Z,102338.28
2023-04-18T02:07:10.764Z,102331.88
2023-04-18T02:14:45.990Z,102331.63
2023-04-18T02:22:20.162Z,102325.03
2023-04-18T02:29:55.643Z,102326.19
2023-04-18T02:37:29.620Z,102324.28
2023-04-18T02:45:05.546Z,102333.97
2023-04-18T02:52:39.331Z,102335.34
2023-04-18T03:00:16.225Z,102337.28
2023-04-18T03:07:50.268Z,102343.94
2023-04-18T03:15:25.573Z,102346.31
2023-04-18T03:22:59.727Z,102349.56
2023-04-18T03:30:35.225Z,102353.84
2023-04-18T03:38:09.342Z,102343.97
2023-04-18T03:45:47.945Z,102345.63
2023-04-18T03:53:22.005Z,102344.69
2023-04-18T04:00:57.565Z,102353.75
2023-04-18T04:08:31.565Z,102357.22
2023-04-18T04:16:08.610Z,102368.81
2023-04-18T04:23:43.200Z,102361.53
2023-04-18T04:31:18.841Z,102369.56
2023-04-18T04:38:52.979Z,102374.13
2023-04-18T04:46:30.922Z,102378.72
2023-04-18T04:54:05.629Z,102389.25
2023-04-18T05:01:40.999Z,102389.16
2023-04-18T05:09:15.098Z,102379.44
2023-04-18T05:16:50.482Z,102392.06
2023-04-18T05:24:24.342Z,102385.09
2023-04-18T05:31:59.759Z,102393.22
2023-04-18T05:39:34.512Z,102392.72
2023-04-18T05:47:09.959Z,102392.97
2023-04-18T05:54:44.130Z,102411.16
2023-04-18T06:02:19.569Z,102403.66
2023-04-18T06:09:54.713Z,102403.91
2023-04-18T06:17:30.317Z,102412.69
2023-04-18T06:25:04.636Z,102410.22
2023-04-18T06:32:40.530Z,102416.75
2023-04-18T06:40:15.248Z,102417.63
2023-04-18T06:47:51.629Z,102425.38
2023-04-18T06:55:25.793Z,102427.06
2023-04-18T07:03:02.241Z,102423.25
2023-04-18T07:10:36.268Z,102423.22
2023-04-18T07:18:12.481Z,102424.09
2023-04-18T07:25:49.588Z,102428.44
2023-04-18T07:33:25.118Z,102427.34
2023-04-18T07:40:59.723Z,102421.47
2023-04-18T07:48:35.347Z,102428.22
2023-04-18T07:56:09.195Z,102432.03
2023-04-18T08:03:44.702Z,102440.16
2023-04-18T08:11:18.798Z,102427.50
2023-04-18T08:18:54.186Z,102432.59
2023-04-18T08:26:28.394Z,102433.03
2023-04-18T08:34:05.105Z,102434.72
2023-04-18T08:41:39.225Z,102427.84
2023-04-18T08:49:14.765Z,102436.63
2023-04-18T08:56:49.197Z,102433.25
2023-04-18T09:04:38.545Z,102441.47
2023-04-18T09:12:14.510Z,102442.56
2023-04-18T09:19:50.721Z,102433.25
2023-04-18T09:27:25.861Z,102443.28
2023-04-18T09:35:04.994Z,102446.47
2023-04-18T09:42:39.033Z,102440.91
2023-04-18T09:50:16.552Z,102435.97
2023-04-18T09:57:53.924Z,102429.22
2023-04-18T10:05:32.890Z,102423.03
2023-04-18T10:13:08.537Z,102425.44
2023-04-18T10:20:44.598Z,102423.34
2023-04-18T10:28:21.055Z,102424.94
2023-04-18T10:36:02.186Z,102423.03
2023-04-18T10:44:14.764Z,102403.69
2023-04-18T10:51:51.245Z,102410.56
2023-04-18T10:59:26.871Z,102420.75
2023-04-18T11:07:03.104Z,102414.44
2023-04-18T11:14:43.828Z,102418.59
2023-04-18T11:22:19.524Z,102405.81
2023-04-18T11:29:54.467Z,102404.53
2023-04-18T11:37:29.643Z,102408.19
2023-04-18T11:45:03.905Z,102405.84
2023-04-18T11:52:41.212Z,102399.66
2023-04-18T12:00:16.553Z,102388.63
2023-04-18T12:07:52.208Z,102393.84
2023-04-18T12:15:28.249Z,102393.41
2023-04-18T12:23:04.509Z,102399.00
2023-04-18T12:30:38.330Z,102389.28
2023-04-18T12:38:13.777Z,102378.28
2023-04-18T12:45:48.480Z,102389.19
2023-04-18T12:53:24.119Z,102386.63
2023-04-18T13:00:59.039Z,102389.41
2023-04-18T13:08:35.117Z,102385.69
2023-04-18T13:16:09.395Z,102380.56
2023-04-18T13:23:44.822Z,102375.31
2023-04-18T13:31:18.702Z,102366.47
2023-04-18T13:38:54.450Z,102371.25
2023-04-18T13:46:29.118Z,102356.03
2023-04-18T13:54:04.953Z,102363.19
2023-04-18T14:01:39.345Z,102356.31
2023-04-18T14:09:14.921Z,102357.22
2023-04-18T14:16:49.001Z,102354.78
2023-04-18T14:24:24.446Z,102348.72
2023-04-18T14:31:58.365Z,102351.88
2023-04-18T14:39:33.807Z,102334.47
2023-04-18T14:47:07.846Z,102327.50
2023-04-18T14:54:44.015Z,102330.19
2023-04-18T15:02:18.210Z,102324.00
2023-04-18T15:09:54.403Z,102331.19
2023-04-18T15:17:29.342Z,102314.91
2023-04-18T15:25:05.721Z,102308.53
2023-04-18T15:40:36.164Z,102321.16
2023-04-18T15:48:10.107Z,102321.00
2023-04-18T15:55:46.632Z,102331.47
2023-04-18T16:03:21.003Z,102317.03
2023-04-18T16:10:56.452Z,102321.41
2023-04-18T16:18:30.696Z,102325.84
2023-04-18T16:26:06.523Z,102321.19
2023-04-18T16:33:40.609Z,102313.06
2023-04-18T16:41:15.770Z,102314.75
2023-04-18T16:48:51.805Z,102305.72
2023-04-18T16:56:27.608Z,102324.38
2023-04-18T17:04:01.413Z,102329.47
2023-04-18T17:11:39.537Z,102319.34
2023-04-18T17:19:13.974Z,102320.63
2023-04-18T17:26:50.170Z,102331.09
2023-04-18T17:34:24.253Z,102329.00
2023-04-18T17:42:00.255Z,102347.47
2023-04-18T17:49:35.060Z,102346.38
2023-04-18T17:57:10.956Z,102347.81
2023-04-18T18:04:44.997Z,102363.44
2023-04-18T18:12:20.357Z,102367.41
2023-04-18T18:19:54.211Z,102372.13
2023-04-18T18:27:29.462Z,102379.59
2023-04-18T18:35:05.606Z,102388.06
2023-04-18T18:42:41.804Z,102393.91
2023-04-18T18:50:15.631Z,102391.31
2023-04-18T18:57:51.531Z,102399.53
2023-04-18T19:05:25.838Z,102413.25
2023-04-18T19:13:01.717Z,102413.69
2023-04-18T19:20:35.649Z,102420.03
2023-04-18T19:28:10.915Z,102421.47
2023-04-18T19:35:44.725Z,102417.41
2023-04-18T19:43:19.946Z,102415.00
2023-04-18T19:50:53.770Z,102422.19
2023-04-18T19:58:39.796Z,102422.53
2023-04-18T20:06:14.269Z,102419.44
2023-04-18T20:13:49.734Z,102421.47
2023-04-18T20:21:23.780Z,102419.72
2023-04-18T20:28:59.080Z,102413.38
2023-04-18T20:36:34.427Z,102410.09
2023-04-18T20:44:10.257Z,102404.94
2023-04-18T20:51:44.114Z,102407.84
2023-04-18T20:59:20.042Z,102412.44
2023-04-18T21:06:54.195Z,102422.06
2023-04-18T21:14:30.703Z,102409.31
2023-04-18T21:22:04.617Z,102420.16
2023-04-18T21:29:39.892Z,102417.25
2023-04-18T21:37:13.746Z,102414.91
2023-04-18T21:44:48.962Z,102414.94
2023-04-18T21:52:22.879Z,102415.78
2023-04-18T21:59:58.941Z,102410.00
2023-04-18T22:07:34.183Z,102404.47
2023-04-18T22:15:11.624Z,102402.16
2023-04-18T22:22:45.720Z,102392.63
2023-04-18T22:30:21.393Z,102393.81
2023-04-18T22:37:56.375Z,102386.91
2023-04-18T22:45:31.630Z,102386.31
2023-04-18T22:53:06.153Z,102379.44
2023-04-18T23:00:41.520Z,102374.75
2023-04-18T23:08:18.806Z,102368.84
2023-04-18T23:15:54.214Z,102366.41
2023-04-18T23:23:28.196Z,102366.50
2023-04-18T23:31:03.788Z,102361.75
2023-04-18T23:38:38.537Z,102360.84
2023-04-18T23:46:14.203Z,102357.56
2023-04-18T23:53:48.245Z,102355.53
